Time;durP1;ratioP1;P1;durP2;ratioP2;P2;SDS_P1;SDS_P2;PMS_P1;PMS_P2;Temp;Humidity;BMP_temperature;BMP_pressure;BME280_temperature;BME280_humidity;BME280_pressure;Samples;Min_cycle;Max_cycle;Signal;HPM_P1;HPM_P2
2023/01/09 00:01:26;;;;;;;7.90;6.13;;;;;;;7.35;100.00;96478.97;5093414;28;20443;-78
2023/01/09 00:03:53;;;;;;;7.43;6.10;;;;;;;7.39;100.00;96469.84;5093540;28;20202;-79
2023/01/09 00:06:19;;;;;;;8.20;6.10;;;;;;;7.38;100.00;96474.28;5093301;28;20241;-78
2023/01/09 00:08:46;;;;;;;7.83;5.87;;;;;;;7.34;100.00;96472.06;5092637;28;20578;-78
2023/01/09 00:11:12;;;;;;;8.10;6.70;;;;;;;7.33;100.00;96471.22;5093076;28;20210;-79
2023/01/09 00:13:39;;;;;;;7.50;5.77;;;;;;;7.37;100.00;96471.78;5093186;28;20203;-79
2023/01/09 00:16:07;;;;;;;7.80;5.83;;;;;;;7.34;100.00;96472.06;5093327;28;20231;-78
2023/01/09 00:18:34;;;;;;;8.43;6.60;;;;;;;7.34;100.00;96472.06;5095695;28;20217;-78
2023/01/09 00:21:02;;;;;;;7.07;5.80;;;;;;;7.33;100.00;96465.09;5099920;28;20227;-79
2023/01/09 00:23:28;;;;;;;6.83;5.67;;;;;;;7.36;100.00;96464.88;5100972;28;20568;-78
2023/01/09 00:26:02;;;;;;;8.77;6.13;;;;;;;7.32;100.00;96459.03;5101017;28;20237;-79
2023/01/09 00:28:29;;;;;;;8.40;6.23;;;;;;;7.32;100.00;96460.81;5100642;28;20206;-79
2023/01/09 00:30:56;;;;;;;7.53;6.17;;;;;;;7.36;100.00;96467.50;5104623;28;20206;-79
2023/01/09 00:33:26;;;;;;;9.23;6.10;;;;;;;7.39;100.00;96462.81;5099601;28;20220;-78
2023/01/09 00:35:54;;;;;;;6.53;5.37;;;;;;;7.43;100.00;96466.03;5092635;28;20211;-78
2023/01/09 00:38:20;;;;;;;7.23;5.73;;;;;;;7.42;100.00;96459.09;5092562;28;20293;-79
2023/01/09 00:40:47;;;;;;;6.23;5.20;;;;;;;7.42;100.00;96461.72;5091741;28;20237;-78
2023/01/09 00:43:13;;;;;;;6.53;5.33;;;;;;;7.39;100.00;96459.34;5092593;28;20207;-78
2023/01/09 00:45:40;;;;;;;5.83;4.97;;;;;;;7.38;100.00;96465.56;5092616;28;20213;-78
2023/01/09 00:48:11;;;;;;;6.30;4.63;;;;;;;7.38;100.00;96452.44;5092500;28;20211;-78
2023/01/09 00:50:38;;;;;;;5.50;4.63;;;;;;;7.37;100.00;96463.91;5091652;28;20204;-78
2023/01/09 00:53:11;;;;;;;5.50;4.50;;;;;;;7.39;100.00;96469.84;5092439;28;20203;-78
2023/01/09 00:55:39;;;;;;;5.13;4.60;;;;;;;7.35;100.00;96463.22;5092475;28;20207;-78
2023/01/09 00:58:06;;;;;;;4.10;3.70;;;;;;;7.36;100.00;96464.88;5092227;28;20578;-78
2023/01/09 01:00:33;;;;;;;5.53;4.57;;;;;;;7.38;100.00;96456.88;5091319;28;20227;-78
2023/01/09 01:02:59;;;;;;;3.80;3.40;;;;;;;7.34;100.00;96451.84;5091097;28;20203;-78
2023/01/09 01:08:12;;;;;;;3.30;3.00;;;;;;;7.36;100.00;96449.91;5091989;28;20782;-78
2023/01/09 01:10:39;;;;;;;3.67;3.20;;;;;;;7.38;100.00;96457.69;5091633;28;20203;-78
2023/01/09 01:13:06;;;;;;;3.27;2.97;;;;;;;7.43;100.00;96452.88;5092047;28;20579;-78
2023/01/09 01:15:32;;;;;;;3.17;2.40;;;;;;;7.38;100.00;96448.03;5091814;28;20214;-78
2023/01/09 01:17:59;;;;;;;2.50;1.90;;;;;;;7.40;100.00;96437.34;5091664;28;20340;-78
2023/01/09 01:20:26;;;;;;;2.50;2.20;;;;;;;7.37;100.00;96440.25;5091286;28;20465;-78
2023/01/09 01:22:52;;;;;;;2.60;1.60;;;;;;;7.37;100.00;96445.50;5092281;28;20215;-78
2023/01/09 01:25:20;;;;;;;1.63;1.50;;;;;;;7.36;100.00;96428.91;5092032;28;20221;-78
2023/01/09 01:27:47;;;;;;;1.77;1.43;;;;;;;7.37;100.00;96435.00;5091582;28;20230;-78
2023/01/09 01:30:15;;;;;;;1.80;1.60;;;;;;;7.38;100.00;96426.16;5091030;28;20206;-78
2023/01/09 01:32:42;;;;;;;2.43;1.20;;;;;;;7.41;100.00;96431.16;5091615;28;20217;-78
2023/01/09 01:35:09;;;;;;;1.20;1.10;;;;;;;7.43;100.00;96429.22;5091732;28;20223;-78
2023/01/09 01:37:37;;;;;;;1.20;1.10;;;;;;;7.41;100.00;96421.47;5091462;28;20222;-78
2023/01/09 01:40:07;;;;;;;1.23;1.13;;;;;;;7.47;100.00;96431.47;5090818;28;20208;-78
2023/01/09 01:42:34;;;;;;;1.27;0.80;;;;;;;7.48;100.00;96437.56;5091491;28;20222;-78
2023/01/09 01:45:06;;;;;;;1.10;0.90;;;;;;;7.44;100.00;96425.63;5091676;28;20559;-78
2023/01/09 01:47:40;;;;;;;1.03;0.97;;;;;;;7.41;100.00;96433.78;5091491;28;20301;-78
2023/01/09 01:50:14;;;;;;;0.70;0.70;;;;;;;7.46;100.00;96431.59;5090640;28;20221;-78
2023/01/09 01:52:43;;;;;;;0.70;0.70;;;;;;;7.42;100.00;96423.13;5091674;28;20202;-78
2023/01/09 01:55:11;;;;;;;1.50;0.60;;;;;;;7.40;100.00;96426.84;5091439;28;20203;-78
2023/01/09 01:57:42;;;;;;;0.63;0.63;;;;;;;7.41;100.00;96426.72;5091379;28;20226;-78
2023/01/09 02:00:11;;;;;;;1.20;0.80;;;;;;;7.36;100.00;96439.41;5088215;28;20213;-78
2023/01/09 02:02:38;;;;;;;0.90;0.70;;;;;;;7.41;100.00;96434.59;5089172;28;20234;-78
2023/01/09 02:05:05;;;;;;;1.13;0.60;;;;;;;7.38;100.00;96451.63;5091529;28;20217;-78
2023/01/09 02:07:32;;;;;;;1.40;0.80;;;;;;;7.44;100.00;96449.28;5091228;28;20228;-78
2023/01/09 02:09:59;;;;;;;0.60;0.60;;;;;;;7.42;100.00;96448.59;5090737;28;20571;-78
2023/01/09 02:12:27;;;;;;;0.73;0.60;;;;;;;7.44;100.00;96441.41;5091355;28;20791;-79
2023/01/09 02:14:58;;;;;;;0.67;0.67;;;;;;;7.46;100.00;96440.31;5093485;28;20207;-79
2023/01/09 02:17:46;;;;;;;0.60;0.50;;;;;;;7.48;100.00;96440.19;5095441;28;20249;-79
2023/01/09 02:20:34;;;;;;;1.23;0.60;;;;;;;7.46;100.00;96434.22;5094604;28;20210;-78
2023/01/09 02:23:27;;;;;;;2.00;0.80;;;;;;;7.46;100.00;96435.06;5095373;28;20586;-79
2023/01/09 02:26:23;;;;;;;0.80;0.70;;;;;;;7.49;100.00;96423.47;5061648;28;20214;-79
2023/01/09 02:29:11;;;;;;;1.00;0.80;;;;;;;7.43;100.00;96419.56;5094439;28;20206;-78
2023/01/09 02:31:48;;;;;;;0.70;0.70;;;;;;;7.44;100.00;96415.13;5095248;28;20668;-78
2023/01/09 02:34:24;;;;;;;0.80;0.67;;;;;;;7.46;100.00;96414.03;5095478;28;20587;-78
2023/01/09 02:36:59;;;;;;;0.70;0.70;;;;;;;7.40;100.00;96411.06;5095192;28;20229;-78
2023/01/09 02:39:33;;;;;;;0.60;0.50;;;;;;;7.42;100.00;96409.19;5094539;28;20677;-78
2023/01/09 02:42:05;;;;;;;0.60;0.60;;;;;;;7.41;100.00;96424.09;5095225;28;20227;-78
2023/01/09 02:44:35;;;;;;;0.70;0.70;;;;;;;7.42;100.00;96424.94;5095421;28;20211;-78
2023/01/09 02:47:05;;;;;;;0.80;0.80;;;;;;;7.46;100.00;96434.22;5095147;28;20669;-78
2023/01/09 02:49:34;;;;;;;0.60;0.60;;;;;;;7.48;100.00;96432.31;5094358;28;20217;-78
2023/01/09 02:52:13;;;;;;;0.70;0.50;;;;;;;7.52;100.00;96434.56;5095194;28;20206;-79
2023/01/09 02:54:50;;;;;;;1.20;0.50;;;;;;;7.50;100.00;96440.91;5095189;28;20215;-78
2023/01/09 02:57:40;;;;;;;0.60;0.50;;;;;;;7.45;100.00;96437.81;5094815;28;20224;-78
2023/01/09 03:00:13;;;;;;;0.90;0.60;;;;;;;7.45;100.00;96429.94;5094220;28;20234;-79
2023/01/09 03:02:49;;;;;;;0.40;0.40;;;;;;;7.48;100.00;96435.75;5094720;28;20237;-78
2023/01/09 03:05:22;;;;;;;0.60;0.60;;;;;;;7.44;100.00;96436.16;5094850;28;20210;-78
2023/01/09 03:07:56;;;;;;;0.70;0.60;;;;;;;7.45;100.00;96445.69;5094623;28;20223;-78
2023/01/09 03:10:28;;;;;;;1.10;0.60;;;;;;;7.44;100.00;96458.03;5093921;28;20206;-78
2023/01/09 03:12:58;;;;;;;0.77;0.70;;;;;;;7.43;100.00;96461.63;5094511;28;20211;-78
2023/01/09 03:15:28;;;;;;;0.70;0.67;;;;;;;7.45;100.00;96462.31;5094692;28;20602;-78
2023/01/09 03:17:57;;;;;;;0.53;0.53;;;;;;;7.43;100.00;96471.28;5094319;28;20242;-78
2023/01/09 03:20:27;;;;;;;0.60;0.60;;;;;;;7.41;100.00;96467.97;5093730;28;20210;-78
2023/01/09 03:22:56;;;;;;;0.60;0.60;;;;;;;7.43;100.00;96459.00;5094424;28;20233;-78
2023/01/09 03:25:23;;;;;;;0.77;0.70;;;;;;;7.45;100.00;96469.34;5093324;28;20615;-78
2023/01/09 03:27:54;;;;;;;0.40;0.40;;;;;;;7.47;100.00;96467.44;5094037;28;20229;-78
2023/01/09 03:30:21;;;;;;;0.60;0.60;;;;;;;7.48;100.00;96471.75;5093212;28;20214;-78
2023/01/09 03:32:47;;;;;;;0.57;0.57;;;;;;;7.53;100.00;96482.72;5094354;28;20202;-78
2023/01/09 03:35:15;;;;;;;0.50;0.50;;;;;;;7.51;100.00;96479.34;5094248;28;20208;-78
2023/01/09 03:37:42;;;;;;;0.40;0.40;;;;;;;7.48;100.00;96500.66;5094188;28;20305;-78
2023/01/09 03:40:10;;;;;;;0.50;0.50;;;;;;;7.51;100.00;96506.50;5093445;28;20203;-78
2023/01/09 03:42:37;;;;;;;0.50;0.50;;;;;;;7.54;100.00;96515.91;5093931;28;20234;-78
2023/01/09 03:45:04;;;;;;;0.67;0.60;;;;;;;7.55;100.00;96522.84;5094293;28;20218;-78
2023/01/09 03:47:30;;;;;;;1.30;0.43;;;;;;;7.52;100.00;96533.59;5094006;28;20227;-78
2023/01/09 03:49:57;;;;;;;0.50;0.50;;;;;;;7.56;100.00;96540.28;5093415;28;20213;-78
2023/01/09 03:52:25;;;;;;;0.40;0.40;;;;;;;7.57;100.00;96555.94;5093721;28;20203;-78
2023/01/09 03:54:51;;;;;;;0.40;0.40;;;;;;;7.50;100.00;96567.06;5093975;28;20207;-78
2023/01/09 03:57:17;;;;;;;0.30;0.30;;;;;;;7.47;100.00;96562.06;5093679;28;20234;-78
2023/01/09 03:59:44;;;;;;;0.30;0.30;;;;;;;7.51;100.00;96589.75;5092952;28;20228;-78
2023/01/09 04:02:10;;;;;;;0.43;0.40;;;;;;;7.46;100.00;96594.53;5093632;28;20226;-78
2023/01/09 04:04:37;;;;;;;0.67;0.40;;;;;;;7.41;100.00;96605.44;5093643;28;20208;-78
2023/01/09 04:07:03;;;;;;;0.20;0.20;;;;;;;7.33;100.00;96612.25;5093448;28;20234;-77
2023/01/09 04:09:31;;;;;;;0.20;0.20;;;;;;;7.22;100.00;96620.19;5092757;28;20206;-78
2023/01/09 04:11:58;;;;;;;0.27;0.27;;;;;;;7.09;100.00;96619.47;5093269;28;20210;-78
2023/01/09 04:14:24;;;;;;;0.30;0.30;;;;;;;6.93;100.00;96629.53;5093092;28;20232;-77
2023/01/09 04:16:51;;;;;;;0.20;0.20;;;;;;;6.88;100.00;96650.06;5093090;28;20242;-78
2023/01/09 04:19:17;;;;;;;0.30;0.30;;;;;;;6.78;100.00;96648.28;5092613;28;20210;-78
2023/01/09 04:21:44;;;;;;;0.33;0.30;;;;;;;6.68;100.00;96671.78;5093522;28;20253;-78
2023/01/09 04:24:10;;;;;;;0.27;0.27;;;;;;;6.63;100.00;96676.53;5093161;28;20203;-78
2023/01/09 04:26:38;;;;;;;0.33;0.30;;;;;;;6.61;100.00;96667.97;5093402;28;20231;-78
2023/01/09 04:29:04;;;;;;;0.30;0.30;;;;;;;6.54;100.00;96664.09;5092215;28;20305;-78
2023/01/09 04:31:31;;;;;;;0.20;0.20;;;;;;;6.54;100.00;96668.53;5093407;28;20324;-78
2023/01/09 04:33:57;;;;;;;0.20;0.20;;;;;;;6.49;100.00;96665.41;5092899;28;20206;-78
2023/01/09 04:36:24;;;;;;;0.20;0.20;;;;;;;6.47;100.00;96686.50;5092777;28;20227;-78
2023/01/09 04:38:50;;;;;;;0.30;0.30;;;;;;;6.48;100.00;96685.56;5092106;28;20217;-78
2023/01/09 04:43:58;;;;;;;0.43;0.30;;;;;;;6.46;100.00;96679.59;5092855;28;20210;-78
2023/01/09 04:46:25;;;;;;;0.30;0.30;;;;;;;6.41;100.00;96684.34;5093565;28;20632;-78
2023/01/09 04:48:51;;;;;;;0.30;0.30;;;;;;;6.37;100.00;96688.19;5092576;28;20211;-78
2023/01/09 04:51:18;;;;;;;4.93;0.50;;;;;;;6.39;100.00;96686.28;5092770;28;20214;-78
2023/01/09 04:53:44;;;;;;;0.20;0.20;;;;;;;6.37;100.00;96692.56;5093386;28;20207;-78
2023/01/09 04:56:11;;;;;;;0.30;0.30;;;;;;;6.35;100.00;96689.25;5092810;28;20234;-78
2023/01/09 04:58:37;;;;;;;1.00;0.40;;;;;;;6.32;100.00;96685.06;5092718;28;20220;-78
2023/01/09 05:01:05;;;;;;;0.30;0.30;;;;;;;6.28;100.00;96691.47;5092147;28;20213;-78
2023/01/09 05:03:32;;;;;;;0.30;0.30;;;;;;;6.26;100.00;96700.41;5092681;28;20226;-78
2023/01/09 05:05:58;;;;;;;0.30;0.30;;;;;;;6.24;100.00;96697.06;5092488;28;20587;-78
2023/01/09 05:08:25;;;;;;;0.30;0.30;;;;;;;6.25;100.00;96699.59;5092356;28;20211;-78
2023/01/09 05:10:51;;;;;;;0.87;0.33;;;;;;;6.24;100.00;96707.56;5092393;28;20210;-78
2023/01/09 05:13:18;;;;;;;0.37;0.37;;;;;;;6.24;100.00;96700.53;5092561;28;20217;-78
2023/01/09 05:15:44;;;;;;;0.57;0.33;;;;;;;6.24;100.00;96697.91;5092733;28;20211;-78
2023/01/09 05:18:12;;;;;;;0.30;0.30;;;;;;;6.22;100.00;96714.72;5092377;28;20218;-78
2023/01/09 05:20:38;;;;;;;0.80;0.50;;;;;;;6.25;100.00;96717.97;5091618;28;20573;-78
2023/01/09 05:23:05;;;;;;;0.40;0.40;;;;;;;6.24;100.00;96733.81;5092517;28;20233;-78
2023/01/09 05:25:31;;;;;;;0.50;0.40;;;;;;;6.26;100.00;96735.38;5092424;28;20331;-78
2023/01/09 05:27:58;;;;;;;0.63;0.50;;;;;;;6.27;100.00;96739.66;5092440;28;20233;-79
2023/01/09 05:30:25;;;;;;;0.63;0.47;;;;;;;6.25;100.00;96752.06;5091974;28;20207;-78
2023/01/09 05:32:51;;;;;;;0.77;0.60;;;;;;;6.22;100.00;96746.22;5092169;28;20213;-78
2023/01/09 05:35:20;;;;;;;1.13;0.50;;;;;;;6.22;100.00;96754.88;5092263;28;20219;-79
2023/01/09 05:37:46;;;;;;;0.70;0.70;;;;;;;6.25;100.00;96762.56;5092667;28;20585;-78
2023/01/09 05:40:13;;;;;;;1.07;0.50;;;;;;;6.23;100.00;96774.94;5091393;28;20212;-78
2023/01/09 05:42:42;;;;;;;0.80;0.60;;;;;;;6.20;100.00;96764.66;5092058;28;20237;-79
2023/01/09 05:45:10;;;;;;;2.20;0.70;;;;;;;6.16;100.00;96767.63;5092315;28;20213;-78
2023/01/09 05:47:36;;;;;;;1.67;0.67;;;;;;;6.08;100.00;96777.84;5091872;28;20600;-78
2023/01/09 05:50:04;;;;;;;0.63;0.60;;;;;;;6.02;100.00;96776.50;5090722;28;20211;-78
2023/01/09 05:52:32;;;;;;;0.77;0.60;;;;;;;5.98;100.00;96782.91;5092378;28;20210;-78
2023/01/09 05:54:58;;;;;;;1.60;0.70;;;;;;;5.87;100.00;96787.25;5092268;28;20217;-78
2023/01/09 05:57:25;;;;;;;1.13;0.57;;;;;;;5.81;100.00;96799.00;5092115;28;20233;-78
2023/01/09 05:59:51;;;;;;;2.77;0.60;;;;;;;5.79;100.00;96798.25;5091410;28;20213;-78
2023/01/09 06:02:18;;;;;;;0.60;0.50;;;;;;;5.86;100.00;96790.84;5092316;28;20738;-78
2023/01/09 06:04:44;;;;;;;1.37;0.57;;;;;;;5.76;100.00;96801.09;5092274;28;20213;-78
2023/01/09 06:07:11;;;;;;;1.73;0.80;;;;;;;5.76;100.00;96793.25;5092159;28;20230;-78
2023/01/09 06:09:39;;;;;;;1.43;0.73;;;;;;;5.65;100.00;96798.41;5091294;28;20643;-78
2023/01/09 06:12:06;;;;;;;0.87;0.67;;;;;;;5.68;100.00;96797.34;5092129;28;20209;-78
2023/01/09 06:14:32;;;;;;;1.90;0.77;;;;;;;5.59;100.00;96798.00;5092312;28;20239;-78
2023/01/09 06:16:59;;;;;;;4.17;0.80;;;;;;;5.47;100.00;96799.69;5100037;22;20235;-81
2023/01/09 06:19:25;;;;;;;1.70;0.73;;;;;;;5.40;100.00;96803.69;5070451;28;20211;-81
2023/01/09 06:21:52;;;;;;;1.77;0.80;;;;;;;5.29;100.00;96811.44;5070772;28;20207;-81
2023/01/09 06:24:19;;;;;;;3.23;0.77;;;;;;;5.18;100.00;96824.44;5070702;28;20218;-81
2023/01/09 06:26:46;;;;;;;1.03;0.80;;;;;;;5.15;100.00;96831.69;5070427;28;20237;-81
2023/01/09 06:29:13;;;;;;;1.30;0.80;;;;;;;5.12;100.00;96839.75;5070179;28;20623;-81
2023/01/09 06:31:39;;;;;;;1.50;0.97;;;;;;;5.05;100.00;96839.31;5070806;28;20213;-81
2023/01/09 06:34:06;;;;;;;3.37;0.80;;;;;;;4.96;100.00;96850.41;5070666;28;20202;-81
2023/01/09 06:36:32;;;;;;;1.90;0.87;;;;;;;4.90;100.00;96856.03;5071093;28;20229;-81
2023/01/09 06:38:59;;;;;;;1.63;0.70;;;;;;;4.84;100.00;96859.06;5070196;28;20215;-81
2023/01/09 06:41:25;;;;;;;1.53;0.60;;;;;;;4.81;100.00;96867.13;5070584;28;20214;-81
2023/01/09 06:43:53;;;;;;;1.30;0.60;;;;;;;4.76;100.00;96873.63;5070621;28;20230;-81
2023/01/09 06:46:20;;;;;;;2.40;0.60;;;;;;;4.73;100.00;96869.44;5070739;28;20217;-81
2023/01/09 06:48:46;;;;;;;0.50;0.50;;;;;;;4.65;100.00;96882.16;5070104;28;20215;-81
2023/01/09 06:51:13;;;;;;;0.90;0.70;;;;;;;4.58;100.00;96880.88;5070373;28;20324;-81
2023/01/09 06:53:39;;;;;;;2.70;0.70;;;;;;;4.55;100.00;96886.34;5070432;28;20209;-81
2023/01/09 06:56:06;;;;;;;3.53;0.70;;;;;;;4.52;100.00;96897.00;5070199;28;20208;-81
2023/01/09 06:58:33;;;;;;;1.77;0.83;;;;;;;4.59;100.00;96903.50;5070562;28;20211;-81
2023/01/09 07:01:00;;;;;;;2.07;0.63;;;;;;;4.69;100.00;96898.50;5070368;28;20320;-81
2023/01/09 07:03:27;;;;;;;2.30;0.80;;;;;;;4.83;100.00;96895.84;5073990;28;20597;-81
2023/01/09 07:05:54;;;;;;;1.97;0.73;;;;;;;4.93;100.00;96889.88;5073981;28;20209;-81
2023/01/09 07:08:20;;;;;;;1.23;0.50;;;;;;;4.93;100.00;96892.50;5073658;28;20713;-76
2023/01/09 07:10:47;;;;;;;1.83;0.90;;;;;;;5.00;100.00;96888.53;5073218;28;20211;-81
2023/01/09 07:13:13;;;;;;;4.20;1.23;;;;;;;5.04;100.00;96879.53;5074018;28;20229;-82
2023/01/09 07:15:40;;;;;;;1.83;0.70;;;;;;;5.06;100.00;96877.66;5073709;28;20213;-85
2023/01/09 07:18:08;;;;;;;1.27;0.60;;;;;;;5.14;100.00;96870.09;5073646;28;20264;-82
2023/01/09 07:20:34;;;;;;;1.57;0.70;;;;;;;5.07;100.00;96874.09;5072843;28;20206;-81
2023/01/09 07:23:01;;;;;;;1.03;0.70;;;;;;;4.98;100.00;96885.19;5073534;28;20252;-82
2023/01/09 07:25:27;;;;;;;1.67;0.70;;;;;;;4.94;100.00;96894.19;5073560;28;20211;-82
2023/01/09 07:27:54;;;;;;;2.10;0.90;;;;;;;4.90;100.00;96895.31;5073566;28;20626;-82
2023/01/09 07:30:20;;;;;;;2.27;0.77;;;;;;;4.93;100.00;96892.50;5073011;28;20214;-86
2023/01/09 07:32:47;;;;;;;1.97;0.90;;;;;;;4.89;100.00;96898.06;5073721;28;20605;-83
2023/01/09 07:35:15;;;;;;;4.57;1.00;;;;;;;4.94;100.00;96898.59;5073365;28;20249;-82
2023/01/09 07:37:41;;;;;;;2.30;0.80;;;;;;;5.02;100.00;96894.50;5073185;28;20249;-82
2023/01/09 07:40:09;;;;;;;1.37;0.60;;;;;;;5.15;100.00;96892.75;5072477;28;20207;-82
2023/01/09 07:42:35;;;;;;;2.03;0.70;;;;;;;5.24;100.00;96891.28;5073316;28;20238;-82
2023/01/09 07:45:02;;;;;;;4.20;1.50;;;;;;;5.23;100.00;96894.84;5073356;28;20229;-82
2023/01/09 07:47:28;;;;;;;2.47;0.67;;;;;;;5.28;100.00;96888.38;5073208;28;20231;-81
2023/01/09 07:49:55;;;;;;;3.20;1.03;;;;;;;5.37;100.00;96892.97;5072265;28;20228;-83
2023/01/09 07:52:23;;;;;;;1.67;0.80;;;;;;;5.41;100.00;96897.06;5073534;28;20218;-83
2023/01/09 07:54:49;;;;;;;2.03;0.80;;;;;;;5.41;100.00;96898.81;5073183;28;20218;-84
2023/01/09 07:57:16;;;;;;;3.17;0.80;;;;;;;5.49;100.00;96913.09;5073028;28;20230;-83
2023/01/09 07:59:42;;;;;;;1.10;0.53;;;;;;;5.56;100.00;96911.72;5072067;28;20677;-79
2023/01/09 08:02:09;;;;;;;4.17;0.90;;;;;;;5.60;100.00;96913.19;5072835;28;20676;-83
2023/01/09 08:04:35;;;;;;;2.20;0.83;;;;;;;5.63;100.00;96930.50;5072611;28;20241;-83
2023/01/09 08:07:03;;;;;;;1.73;1.00;;;;;;;5.64;100.00;96927.78;5072890;28;20230;-83
2023/01/09 08:09:30;;;;;;;2.53;0.70;;;;;;;5.79;100.00;96929.31;5072019;28;20283;-84
2023/01/09 08:11:57;;;;;;;0.67;0.67;;;;;;;5.84;100.00;96932.50;5072329;28;20214;-84
2023/01/09 08:14:23;;;;;;;1.67;0.70;;;;;;;5.96;100.00;96925.56;5072319;28;20434;-84
2023/01/09 08:16:50;;;;;;;3.53;0.80;;;;;;;6.08;100.00;96932.56;5070959;28;20235;-83
2023/01/09 08:19:16;;;;;;;1.53;0.80;;;;;;;6.22;100.00;96925.41;5070341;28;20214;-83
2023/01/09 08:21:43;;;;;;;3.37;1.03;;;;;;;6.29;100.00;96910.91;5070347;28;20237;-83
2023/01/09 08:24:10;;;;;;;2.37;0.70;;;;;;;6.39;100.00;96914.56;5071483;28;20231;-84
2023/01/09 08:26:37;;;;;;;1.40;0.83;;;;;;;6.40;100.00;96918.03;5067672;28;20235;-84
2023/01/09 08:29:05;;;;;;;1.70;0.80;;;;;;;6.36;100.00;96914.75;5063754;28;20586;-83
2023/01/09 08:31:32;;;;;;;1.87;0.67;;;;;;;6.38;100.00;96915.50;5071176;28;20309;-83
2023/01/09 08:33:58;;;;;;;4.27;0.80;;;;;;;6.32;100.00;96926.44;5071752;28;20211;-83
2023/01/09 08:36:25;;;;;;;1.83;0.70;;;;;;;6.32;100.00;96926.44;5070535;28;20238;-83
2023/01/09 08:38:51;;;;;;;1.20;0.70;;;;;;;6.43;100.00;96918.63;5070532;28;20211;-83
2023/01/09 08:47:06;;;;;;;3.50;0.90;;;;;;;6.37;100.00;96907.72;5071096;28;20601;-83
2023/01/09 08:49:33;;;;;;;1.70;0.90;;;;;;;6.39;100.00;96906.69;5070225;28;20207;-84
2023/01/09 08:51:59;;;;;;;2.30;0.90;;;;;;;6.41;100.00;96906.56;5070975;28;20220;-84
2023/01/09 08:54:26;;;;;;;1.93;0.70;;;;;;;6.35;100.00;96894.72;5071179;28;20222;-84
2023/01/09 08:56:52;;;;;;;1.93;0.60;;;;;;;6.31;100.00;96900.31;5070400;28;20230;-83
2023/01/09 08:59:20;;;;;;;2.42;0.80;;;;;;;6.24;100.00;96899.88;5069970;28;20525;-81
2023/01/09 09:01:46;;;;;;;3.67;1.07;;;;;;;6.24;100.00;96907.75;5070696;28;20207;-81
2023/01/09 09:04:13;;;;;;;2.23;0.83;;;;;;;6.31;100.00;96914.28;5070894;28;20254;-79
2023/01/09 09:06:39;;;;;;;2.37;0.77;;;;;;;6.37;100.00;96903.34;5069705;28;20234;-81
2023/01/09 09:09:06;;;;;;;2.10;0.60;;;;;;;6.38;100.00;96891.03;5069725;28;20234;-81
2023/01/09 09:11:33;;;;;;;2.93;0.97;;;;;;;6.37;100.00;96897.25;5070504;28;20214;-81
2023/01/09 09:14:00;;;;;;;1.63;0.80;;;;;;;6.39;100.00;96896.19;5068185;28;20222;-81
2023/01/09 09:16:28;;;;;;;2.10;0.80;;;;;;;6.34;100.00;96895.66;5070217;28;20238;-80
2023/01/09 09:18:54;;;;;;;2.40;0.70;;;;;;;6.36;100.00;96899.00;5069839;28;20827;-83
2023/01/09 09:21:21;;;;;;;3.07;0.93;;;;;;;6.40;100.00;96891.78;5069410;28;20207;-81
2023/01/09 09:23:47;;;;;;;1.53;0.70;;;;;;;6.47;100.00;96888.59;5069295;28;20222;-76
2023/01/09 09:26:14;;;;;;;5.57;1.10;;;;;;;6.47;99.97;96875.47;5070566;28;20230;-76
2023/01/09 09:28:40;;;;;;;1.67;0.87;;;;;;;6.61;98.25;96862.19;5062657;28;20207;-76
2023/01/09 09:31:07;;;;;;;3.83;1.10;;;;;;;6.62;98.53;96869.09;5050018;28;20489;-76
2023/01/09 09:33:34;;;;;;;1.57;0.87;;;;;;;6.69;99.24;96880.84;5066722;28;20571;-76
2023/01/09 09:36:01;;;;;;;1.80;0.67;;;;;;;6.77;99.14;96867.97;5089977;28;20214;-76
2023/01/09 09:38:28;;;;;;;1.50;0.70;;;;;;;6.87;96.80;96871.59;5089816;28;20222;-76
2023/01/09 09:47:02;;;;;;;1.37;0.70;;;;;;;7.19;95.42;96883.16;5089840;28;20261;-76
2023/01/09 09:49:40;;;;;;;4.83;0.87;;;;;;;7.34;94.65;96887.25;5085892;28;20202;-76
2023/01/09 09:52:19;;;;;;;1.10;0.83;;;;;;;7.40;92.42;96861.31;5069371;28;20568;-78
2023/01/09 09:54:49;;;;;;;0.97;0.50;;;;;;;7.51;92.05;96920.97;5070215;28;20203;-78
2023/01/09 09:57:19;;;;;;;1.03;0.70;;;;;;;7.58;92.09;96937.94;5068776;28;20326;-77
2023/01/09 09:59:50;;;;;;;2.00;0.50;;;;;;;7.63;90.35;96930.53;5069225;28;20204;-76
2023/01/09 10:02:25;;;;;;;2.73;0.83;;;;;;;7.67;91.73;96942.50;5070239;28;20242;-76
2023/01/09 10:04:59;;;;;;;2.00;0.70;;;;;;;7.70;91.49;96937.00;5069297;28;20223;-77
2023/01/09 10:07:32;;;;;;;5.37;0.90;;;;;;;7.79;92.32;96931.06;5069858;28;20227;-76
2023/01/09 10:10:03;;;;;;;1.73;0.80;;;;;;;7.83;90.99;96929.88;5069650;28;20204;-77
2023/01/09 10:12:33;;;;;;;1.93;1.37;;;;;;;7.86;89.66;96916.47;5069590;28;20204;-77
2023/01/09 10:15:01;;;;;;;1.00;0.63;;;;;;;7.91;89.22;96909.88;5069886;28;20207;-77
2023/01/09 10:17:44;;;;;;;3.27;0.87;;;;;;;7.92;89.24;96922.09;5069108;28;20244;-77
2023/01/09 10:20:35;;;;;;;1.87;0.70;;;;;;;7.98;89.50;96919.00;5067657;28;20257;-77
2023/01/09 10:23:13;;;;;;;2.20;0.70;;;;;;;8.00;88.61;96910.97;5069247;28;20214;-77
2023/01/09 10:25:45;;;;;;;3.23;0.90;;;;;;;8.06;89.06;96913.13;5069496;28;20212;-76
2023/01/09 10:28:27;;;;;;;1.10;0.60;;;;;;;8.08;88.88;96905.97;5068358;28;20602;-76
2023/01/09 10:30:59;;;;;;;2.40;0.83;;;;;;;8.11;89.48;96903.06;5063564;28;20215;-77
2023/01/09 10:33:37;;;;;;;2.27;0.60;;;;;;;8.17;88.62;96902.59;5068768;28;20222;-77
2023/01/09 10:36:37;;;;;;;2.28;0.90;;;;;;;8.18;88.08;96891.09;5072046;28;20445;-77
2023/01/09 10:39:12;;;;;;;1.43;0.70;;;;;;;8.18;88.07;96886.69;5073862;28;20219;-77
2023/01/09 10:41:43;;;;;;;2.43;0.67;;;;;;;8.21;86.60;96881.19;5074005;28;20227;-77
2023/01/09 10:44:17;;;;;;;1.23;0.60;;;;;;;8.29;86.30;96888.50;5074019;28;20228;-77
2023/01/09 10:46:48;;;;;;;3.10;0.77;;;;;;;8.30;86.95;96895.41;5073995;28;20235;-77
2023/01/09 10:49:17;;;;;;;6.30;1.10;;;;;;;8.39;87.52;96884.19;5073198;28;20217;-77
2023/01/09 10:51:47;;;;;;;3.07;1.03;;;;;;;8.45;86.38;96897.66;5071890;28;20200;-77
2023/01/09 10:54:17;;;;;;;2.50;0.80;;;;;;;8.47;86.49;96887.03;5074025;28;20253;-77
2023/01/09 10:56:50;;;;;;;1.90;0.80;;;;;;;8.43;86.88;96885.56;5073655;28;20224;-77
2023/01/09 10:59:17;;;;;;;2.00;0.90;;;;;;;8.39;87.58;96877.09;5073045;28;20209;-77
2023/01/09 11:01:44;;;;;;;3.63;1.07;;;;;;;8.31;87.55;96881.28;5073486;28;20207;-77
2023/01/09 11:04:20;;;;;;;1.63;0.73;;;;;;;8.32;87.11;96880.38;5073799;28;20232;-77
2023/01/09 11:06:52;;;;;;;4.37;0.90;;;;;;;8.25;87.86;96881.78;5073652;28;20228;-77
2023/01/09 11:09:19;;;;;;;4.23;0.80;;;;;;;8.21;88.04;96888.28;5073122;28;20211;-77
2023/01/09 11:11:45;;;;;;;2.50;0.80;;;;;;;8.29;88.31;96883.22;5073150;28;20204;-77
2023/01/09 11:14:17;;;;;;;4.13;1.40;;;;;;;8.31;87.49;96876.03;5073383;28;20204;-77
2023/01/09 11:16:52;;;;;;;2.57;1.20;;;;;;;8.36;87.13;96879.13;5073467;28;20229;-81
2023/01/09 11:19:19;;;;;;;2.43;0.80;;;;;;;8.43;86.26;96875.91;5073120;28;20211;-81
2023/01/09 11:21:45;;;;;;;4.33;0.73;;;;;;;8.47;85.44;96869.44;5074184;28;20296;-83
2023/01/09 11:24:31;;;;;;;2.73;1.00;;;;;;;8.44;86.95;96876.75;5077650;28;20234;-81
2023/01/09 11:27:26;;;;;;;2.53;0.87;;;;;;;8.44;85.55;96877.56;5074950;28;20237;-80
2023/01/09 11:30:22;;;;;;;1.93;0.90;;;;;;;8.39;85.87;96873.66;5073388;28;20208;-81
2023/01/09 11:32:49;;;;;;;3.47;1.03;;;;;;;8.43;86.15;96875.06;5075214;28;20241;-83
2023/01/09 11:35:20;;;;;;;1.50;0.70;;;;;;;8.52;85.80;96876.97;5074920;28;20204;-83
2023/01/09 11:37:49;;;;;;;1.50;0.70;;;;;;;8.56;85.13;96871.31;5073701;28;20769;-84
2023/01/09 11:40:21;;;;;;;3.07;0.93;;;;;;;8.50;85.16;96866.53;5073232;28;20212;-83
2023/01/09 11:43:09;;;;;;;1.70;0.90;;;;;;;8.48;83.75;96846.56;5073841;28;20295;-84
2023/01/09 11:45:43;;;;;;;1.67;0.70;;;;;;;8.50;84.36;96860.47;5073893;28;20258;-86
2023/01/09 11:48:17;;;;;;;2.03;0.80;;;;;;;8.65;83.96;96851.31;5072950;28;20238;-86
2023/01/09 11:50:53;;;;;;;2.50;1.00;;;;;;;8.64;83.91;96847.00;5072893;28;20227;-87
2023/01/09 11:53:20;;;;;;;2.80;0.60;;;;;;;8.68;84.26;96840.50;5075850;28;20618;-85
2023/01/09 11:55:55;;;;;;;4.27;0.93;;;;;;;8.68;84.58;96846.63;5080559;28;20204;-86
2023/01/09 11:58:22;;;;;;;2.10;0.70;;;;;;;8.74;84.96;96850.53;5098600;28;20212;-86
2023/01/09 12:00:58;;;;;;;2.50;0.80;;;;;;;8.81;84.48;96843.81;5097916;28;20251;-84